Korcula, Croatia
Current Conditions -  °F | °C
As of 11:00 PM on Tuesday 21 Oct 2014 (Local Time) from LQMO Reporting Station
Broken Clouds Broken Clouds  
Wind Chill: 63°   Ceiling: 7000
Heat Index: 63°   Visibility: 6mi
Dew Point: 59°   Wind: 2mph
Humidity: 88%   Direction: NA
Pressure: 29.85"   Gusts: NA
Location:  42.96°N, 17.13°E
Report Text: LQMO 212100Z VRB02KT 9999 FEW030 SCT040 BKN070 17/15 Q1011
Loading
Personal Weather Stations






























Interactive Weather Map
Tropical Storm Tracking
New forecast layout! Learn more

10-Day Weather Forecast

Advertisements
Track Severe Weather on mobile